sensor_id;sensor_type;location;lat;lon;timestamp;temperature;humidity
9544;DHT22;30418;51.45933468;7.33152330;2023-04-08T00:02:21;11.60;66.00
9544;DHT22;30418;51.45933468;7.33152330;2023-04-08T00:04:50;11.60;66.80
9544;DHT22;30418;51.45933468;7.33152330;2023-04-08T00:07:18;11.50;65.90
9544;DHT22;30418;51.45933468;7.33152330;2023-04-08T00:09:50;11.50;65.90
9544;DHT22;30418;51.45933468;7.33152330;2023-04-08T00:12:19;11.50;65.80
9544;DHT22;30418;51.45933468;7.33152330;2023-04-08T00:14:47;11.50;65.70
9544;DHT22;30418;51.45933468;7.33152330;2023-04-08T00:17:16;11.50;65.70
9544;DHT22;30418;51.45933468;7.33152330;2023-04-08T00:19:44;11.50;65.70
9544;DHT22;30418;51.45933468;7.33152330;2023-04-08T00:22:13;11.50;65.60
9544;DHT22;30418;51.45933468;7.33152330;2023-04-08T00:24:42;11.40;65.50
9544;DHT22;30418;51.45933468;7.33152330;2023-04-08T00:27:12;11.40;65.40
9544;DHT22;30418;51.45933468;7.33152330;2023-04-08T00:29:40;11.50;65.50
9544;DHT22;30418;51.45933468;7.33152330;2023-04-08T00:32:09;11.40;65.40
9544;DHT22;30418;51.45933468;7.33152330;2023-04-08T00:34:37;11.40;65.30
9544;DHT22;30418;51.45933468;7.33152330;2023-04-08T00:37:06;11.40;65.30
9544;DHT22;30418;51.45933468;7.33152330;2023-04-08T00:39:35;11.30;65.10
9544;DHT22;30418;51.45933468;7.33152330;2023-04-08T00:42:04;11.30;65.10
9544;DHT22;30418;51.45933468;7.33152330;2023-04-08T00:44:34;11.30;65.10
9544;DHT22;30418;51.45933468;7.33152330;2023-04-08T00:47:03;11.30;65.10
9544;DHT22;30418;51.45933468;7.33152330;2023-04-08T00:49:31;11.30;65.10
9544;DHT22;30418;51.45933468;7.33152330;2023-04-08T00:52:00;11.20;65.00
9544;DHT22;30418;51.45933468;7.33152330;2023-04-08T00:54:29;11.20;64.90
9544;DHT22;30418;51.45933468;7.33152330;2023-04-08T00:56:58;11.20;64.90
9544;DHT22;30418;51.45933468;7.33152330;2023-04-08T00:59:28;11.20;64.90
9544;DHT22;30418;51.45933468;7.33152330;2023-04-08T01:02:08;11.20;64.90
9544;DHT22;30418;51.45933468;7.33152330;2023-04-08T01:04:46;11.20;64.90
9544;DHT22;30418;51.45933468;7.33152330;2023-04-08T01:07:22;11.10;64.70
9544;DHT22;30418;51.45933468;7.33152330;2023-04-08T01:09:55;11.10;64.60
9544;DHT22;30418;51.45933468;7.33152330;2023-04-08T01:12:27;11.10;64.50
9544;DHT22;30418;51.45933468;7.33152330;2023-04-08T01:15:00;11.10;64.60
9544;DHT22;30418;51.45933468;7.33152330;2023-04-08T01:17:35;11.00;64.40
9544;DHT22;30418;51.45933468;7.33152330;2023-04-08T01:20:06;11.00;64.40
9544;DHT22;30418;51.45933468;7.33152330;2023-04-08T01:22:43;11.00;64.50
9544;DHT22;30418;51.45933468;7.33152330;2023-04-08T01:25:23;11.00;64.40
9544;DHT22;30418;51.45933468;7.33152330;2023-04-08T01:27:57;11.00;64.30
9544;DHT22;30418;51.45933468;7.33152330;2023-04-08T01:30:27;10.90;64.30
9544;DHT22;30418;51.45933468;7.33152330;2023-04-08T01:32:58;10.90;64.20
9544;DHT22;30418;51.45933468;7.33152330;2023-04-08T01:35:30;10.90;64.20
9544;DHT22;30418;51.45933468;7.33152330;2023-04-08T01:37:59;10.80;64.10
9544;DHT22;30418;51.45933468;7.33152330;2023-04-08T01:40:29;10.80;64.10
9544;DHT22;30418;51.45933468;7.33152330;2023-04-08T01:42:59;10.80;64.00
9544;DHT22;30418;51.45933468;7.33152330;2023-04-08T01:45:29;10.80;64.80
9544;DHT22;30418;51.45933468;7.33152330;2023-04-08T01:47:59;10.80;63.90
9544;DHT22;30418;51.45933468;7.33152330;2023-04-08T01:50:30;10.70;63.70
9544;DHT22;30418;51.45933468;7.33152330;2023-04-08T01:53:00;10.70;63.80
9544;DHT22;30418;51.45933468;7.33152330;2023-04-08T01:55:33;10.70;64.00
9544;DHT22;30418;51.45933468;7.33152330;2023-04-08T01:58:05;10.60;64.00
9544;DHT22;30418;51.45933468;7.33152330;2023-04-08T02:00:35;10.70;64.20
9544;DHT22;30418;51.45933468;7.33152330;2023-04-08T02:03:07;10.60;64.20
9544;DHT22;30418;51.45933468;7.33152330;2023-04-08T02:05:36;10.60;64.20
9544;DHT22;30418;51.45933468;7.33152330;2023-04-08T02:08:05;10.60;64.20
9544;DHT22;30418;51.45933468;7.33152330;2023-04-08T02:10:34;10.60;64.20
9544;DHT22;30418;51.45933468;7.33152330;2023-04-08T02:13:05;10.60;64.30
9544;DHT22;30418;51.45933468;7.33152330;2023-04-08T02:15:37;10.60;64.30
9544;DHT22;30418;51.45933468;7.33152330;2023-04-08T02:18:14;10.60;64.30
9544;DHT22;30418;51.45933468;7.33152330;2023-04-08T02:20:47;10.60;64.40
9544;DHT22;30418;51.45933468;7.33152330;2023-04-08T02:23:19;10.60;64.40
9544;DHT22;30418;51.45933468;7.33152330;2023-04-08T02:25:52;10.60;64.40
9544;DHT22;30418;51.45933468;7.33152330;2023-04-08T02:28:28;10.60;64.40
9544;DHT22;30418;51.45933468;7.33152330;2023-04-08T02:30:59;10.60;64.40
9544;DHT22;30418;51.45933468;7.33152330;2023-04-08T02:33:28;10.60;64.50
9544;DHT22;30418;51.45933468;7.33152330;2023-04-08T02:35:57;10.60;64.50
9544;DHT22;30418;51.45933468;7.33152330;2023-04-08T02:38:26;10.60;64.40
9544;DHT22;30418;51.45933468;7.33152330;2023-04-08T02:40:56;10.60;64.40
9544;DHT22;30418;51.45933468;7.33152330;2023-04-08T02:43:28;10.60;64.50
9544;DHT22;30418;51.45933468;7.33152330;2023-04-08T02:45:58;10.60;64.50
9544;DHT22;30418;51.45933468;7.33152330;2023-04-08T02:48:29;10.60;64.40
9544;DHT22;30418;51.45933468;7.33152330;2023-04-08T02:50:58;10.60;64.30
9544;DHT22;30418;51.45933468;7.33152330;2023-04-08T02:53:27;10.60;64.30
9544;DHT22;30418;51.45933468;7.33152330;2023-04-08T02:55:56;10.50;64.10
9544;DHT22;30418;51.45933468;7.33152330;2023-04-08T02:58:24;10.60;64.20
9544;DHT22;30418;51.45933468;7.33152330;2023-04-08T03:00:54;10.50;64.10
9544;DHT22;30418;51.45933468;7.33152330;2023-04-08T03:03:23;10.50;64.10
9544;DHT22;30418;51.45933468;7.33152330;2023-04-08T03:05:56;10.50;64.10
9544;DHT22;30418;51.45933468;7.33152330;2023-04-08T03:08:25;10.50;64.10
9544;DHT22;30418;51.45933468;7.33152330;2023-04-08T03:10:53;10.50;64.10
9544;DHT22;30418;51.45933468;7.33152330;2023-04-08T03:13:22;10.50;64.10
9544;DHT22;30418;51.45933468;7.33152330;2023-04-08T03:15:50;10.50;64.20
9544;DHT22;30418;51.45933468;7.33152330;2023-04-08T03:18:20;10.50;64.20
9544;DHT22;30418;51.45933468;7.33152330;2023-04-08T03:20:49;10.50;64.10
9544;DHT22;30418;51.45933468;7.33152330;2023-04-08T03:23:18;10.50;64.10
9544;DHT22;30418;51.45933468;7.33152330;2023-04-08T03:25:46;10.40;64.00
9544;DHT22;30418;51.45933468;7.33152330;2023-04-08T03:28:15;10.40;64.00
9544;DHT22;30418;51.45933468;7.33152330;2023-04-08T03:30:43;10.40;64.00
9544;DHT22;30418;51.45933468;7.33152330;2023-04-08T03:33:11;10.40;64.10
9544;DHT22;30418;51.45933468;7.33152330;2023-04-08T03:35:41;10.40;64.00
9544;DHT22;30418;51.45933468;7.33152330;2023-04-08T03:38:10;10.40;64.20
9544;DHT22;30418;51.45933468;7.33152330;2023-04-08T03:40:38;10.40;64.10
9544;DHT22;30418;51.45933468;7.33152330;2023-04-08T03:43:07;10.40;64.10
9544;DHT22;30418;51.45933468;7.33152330;2023-04-08T03:45:37;10.40;64.10
9544;DHT22;30418;51.45933468;7.33152330;2023-04-08T03:48:07;10.40;64.10
9544;DHT22;30418;51.45933468;7.33152330;2023-04-08T03:50:35;10.40;64.10
9544;DHT22;30418;51.45933468;7.33152330;2023-04-08T03:53:06;10.40;64.00
9544;DHT22;30418;51.45933468;7.33152330;2023-04-08T03:55:37;10.40;64.10
9544;DHT22;30418;51.45933468;7.33152330;2023-04-08T03:58:05;10.30;64.00
9544;DHT22;30418;51.45933468;7.33152330;2023-04-08T04:00:34;10.30;64.00
9544;DHT22;30418;51.45933468;7.33152330;2023-04-08T04:03:03;10.30;64.00
9544;DHT22;30418;51.45933468;7.33152330;2023-04-08T04:05:32;10.30;64.10
9544;DHT22;30418;51.45933468;7.33152330;2023-04-08T04:08:01;10.30;64.10
9544;DHT22;30418;51.45933468;7.33152330;2023-04-08T04:10:31;10.30;64.00
9544;DHT22;30418;51.45933468;7.33152330;2023-04-08T04:12:59;10.30;64.20
9544;DHT22;30418;51.45933468;7.33152330;2023-04-08T04:15:28;10.30;64.10
9544;DHT22;30418;51.45933468;7.33152330;2023-04-08T04:17:56;10.30;64.10
9544;DHT22;30418;51.45933468;7.33152330;2023-04-08T04:20:28;10.30;64.10
9544;DHT22;30418;51.45933468;7.33152330;2023-04-08T04:22:56;10.30;64.20
9544;DHT22;30418;51.45933468;7.33152330;2023-04-08T04:25:25;10.30;64.20
9544;DHT22;30418;51.45933468;7.33152330;2023-04-08T04:27:55;10.30;64.30
9544;DHT22;30418;51.45933468;7.33152330;2023-04-08T04:30:24;10.30;64.40
9544;DHT22;30418;51.45933468;7.33152330;2023-04-08T04:32:53;10.30;64.40
9544;DHT22;30418;51.45933468;7.33152330;2023-04-08T04:35:22;10.30;64.40
9544;DHT22;30418;51.45933468;7.33152330;2023-04-08T04:37:50;10.30;64.50
9544;DHT22;30418;51.45933468;7.33152330;2023-04-08T04:40:20;10.30;64.50
9544;DHT22;30418;51.45933468;7.33152330;2023-04-08T04:42:48;10.30;64.40
9544;DHT22;30418;51.45933468;7.33152330;2023-04-08T04:45:18;10.30;64.40
9544;DHT22;30418;51.45933468;7.33152330;2023-04-08T04:47:47;10.30;64.40
9544;DHT22;30418;51.45933468;7.33152330;2023-04-08T04:50:15;10.30;64.40
9544;DHT22;30418;51.45933468;7.33152330;2023-04-08T04:52:43;10.30;64.40
9544;DHT22;30418;51.45933468;7.33152330;2023-04-08T04:55:12;10.30;64.40
9544;DHT22;30418;51.45933468;7.33152330;2023-04-08T04:57:41;10.30;64.40
9544;DHT22;30418;51.45933468;7.33152330;2023-04-08T05:00:11;10.30;64.30
9544;DHT22;30418;51.45933468;7.33152330;2023-04-08T05:02:43;10.30;64.40
9544;DHT22;30418;51.45933468;7.33152330;2023-04-08T05:05:11;10.30;64.40
9544;DHT22;30418;51.45933468;7.33152330;2023-04-08T05:07:40;10.30;64.40
9544;DHT22;30418;51.45933468;7.33152330;2023-04-08T05:10:09;10.30;64.40
9544;DHT22;30418;51.45933468;7.33152330;2023-04-08T05:12:38;10.30;64.50
9544;DHT22;30418;51.45933468;7.33152330;2023-04-08T05:15:07;10.30;64.40
9544;DHT22;30418;51.45933468;7.33152330;2023-04-08T05:17:37;10.30;64.50
9544;DHT22;30418;51.45933468;7.33152330;2023-04-08T05:20:08;10.30;64.40
9544;DHT22;30418;51.45933468;7.33152330;2023-04-08T05:22:37;10.30;64.50
9544;DHT22;30418;51.45933468;7.33152330;2023-04-08T05:25:06;10.30;64.40
9544;DHT22;30418;51.45933468;7.33152330;2023-04-08T05:27:35;10.30;64.40
9544;DHT22;30418;51.45933468;7.33152330;2023-04-08T05:30:05;10.30;64.30
9544;DHT22;30418;51.45933468;7.33152330;2023-04-08T05:32:34;10.30;64.30
9544;DHT22;30418;51.45933468;7.33152330;2023-04-08T05:35:03;10.30;64.30
9544;DHT22;30418;51.45933468;7.33152330;2023-04-08T05:37:34;10.30;64.40
9544;DHT22;30418;51.45933468;7.33152330;2023-04-08T05:40:03;10.30;64.40
9544;DHT22;30418;51.45933468;7.33152330;2023-04-08T05:42:33;10.20;64.30
9544;DHT22;30418;51.45933468;7.33152330;2023-04-08T05:45:02;10.30;64.40
9544;DHT22;30418;51.45933468;7.33152330;2023-04-08T05:47:32;10.30;64.50
9544;DHT22;30418;51.45933468;7.33152330;2023-04-08T05:50:00;10.30;64.50
9544;DHT22;30418;51.45933468;7.33152330;2023-04-08T05:52:29;10.30;64.60
9544;DHT22;30418;51.45933468;7.33152330;2023-04-08T05:54:58;10.20;64.50
9544;DHT22;30418;51.45933468;7.33152330;2023-04-08T05:57:27;10.30;64.70
9544;DHT22;30418;51.45933468;7.33152330;2023-04-08T05:59:55;10.30;64.70
9544;DHT22;30418;51.45933468;7.33152330;2023-04-08T06:02:24;10.20;64.50
9544;DHT22;30418;51.45933468;7.33152330;2023-04-08T06:04:53;10.20;64.50
9544;DHT22;30418;51.45933468;7.33152330;2023-04-08T06:07:21;10.20;64.40
9544;DHT22;30418;51.45933468;7.33152330;2023-04-08T06:09:50;10.20;64.50
9544;DHT22;30418;51.45933468;7.33152330;2023-04-08T06:12:20;10.20;64.50
9544;DHT22;30418;51.45933468;7.33152330;2023-04-08T06:14:52;10.20;64.60
9544;DHT22;30418;51.45933468;7.33152330;2023-04-08T06:17:22;10.20;64.70
9544;DHT22;30418;51.45933468;7.33152330;2023-04-08T06:19:51;10.20;64.70
9544;DHT22;30418;51.45933468;7.33152330;2023-04-08T06:22:19;10.20;64.80
9544;DHT22;30418;51.45933468;7.33152330;2023-04-08T06:24:48;10.20;64.80
9544;DHT22;30418;51.45933468;7.33152330;2023-04-08T06:27:16;10.10;64.90
9544;DHT22;30418;51.45933468;7.33152330;2023-04-08T06:29:46;10.20;65.10
9544;DHT22;30418;51.45933468;7.33152330;2023-04-08T06:32:15;10.10;65.00
9544;DHT22;30418;51.45933468;7.33152330;2023-04-08T06:34:44;10.10;65.00
9544;DHT22;30418;51.45933468;7.33152330;2023-04-08T06:37:12;10.10;65.00
9544;DHT22;30418;51.45933468;7.33152330;2023-04-08T06:39:41;10.10;65.00
9544;DHT22;30418;51.45933468;7.33152330;2023-04-08T06:42:10;10.10;65.00
9544;DHT22;30418;51.45933468;7.33152330;2023-04-08T06:44:54;10.10;65.10
9544;DHT22;30418;51.45933468;7.33152330;2023-04-08T06:47:24;10.10;65.10
9544;DHT22;30418;51.45933468;7.33152330;2023-04-08T06:49:52;10.10;65.00
9544;DHT22;30418;51.45933468;7.33152330;2023-04-08T06:52:21;10.10;65.10
9544;DHT22;30418;51.45933468;7.33152330;2023-04-08T06:54:49;10.10;65.20
9544;DHT22;30418;51.45933468;7.33152330;2023-04-08T06:57:17;10.10;65.20
9544;DHT22;30418;51.45933468;7.33152330;2023-04-08T06:59:46;10.10;65.30
9544;DHT22;30418;51.45933468;7.33152330;2023-04-08T07:02:16;10.10;65.40
9544;DHT22;30418;51.45933468;7.33152330;2023-04-08T07:04:45;10.10;65.50
9544;DHT22;30418;51.45933468;7.33152330;2023-04-08T07:07:13;10.10;65.50
9544;DHT22;30418;51.45933468;7.33152330;2023-04-08T07:09:42;10.10;65.50
9544;DHT22;30418;51.45933468;7.33152330;2023-04-08T07:12:12;10.20;65.60
9544;DHT22;30418;51.45933468;7.33152330;2023-04-08T07:14:40;10.20;65.60
9544;DHT22;30418;51.45933468;7.33152330;2023-04-08T07:17:09;10.10;65.50
9544;DHT22;30418;51.45933468;7.33152330;2023-04-08T07:19:39;10.10;65.50
9544;DHT22;30418;51.45933468;7.33152330;2023-04-08T07:22:10;10.10;65.60
9544;DHT22;30418;51.45933468;7.33152330;2023-04-08T07:24:38;10.10;65.60
9544;DHT22;30418;51.45933468;7.33152330;2023-04-08T07:27:08;10.10;65.60
9544;DHT22;30418;51.45933468;7.33152330;2023-04-08T07:29:37;10.10;65.70
9544;DHT22;30418;51.45933468;7.33152330;2023-04-08T07:32:06;10.10;65.80
9544;DHT22;30418;51.45933468;7.33152330;2023-04-08T07:34:34;10.20;66.10
9544;DHT22;30418;51.45933468;7.33152330;2023-04-08T07:37:04;10.20;66.20
9544;DHT22;30418;51.45933468;7.33152330;2023-04-08T07:39:33;10.20;66.20
9544;DHT22;30418;51.45933468;7.33152330;2023-04-08T07:42:01;10.20;66.20
9544;DHT22;30418;51.45933468;7.33152330;2023-04-08T07:44:30;10.30;66.30
9544;DHT22;30418;51.45933468;7.33152330;2023-04-08T07:46:58;10.30;66.30
9544;DHT22;30418;51.45933468;7.33152330;2023-04-08T07:49:27;10.30;66.30
9544;DHT22;30418;51.45933468;7.33152330;2023-04-08T07:51:56;10.30;66.30
9544;DHT22;30418;51.45933468;7.33152330;2023-04-08T07:54:25;10.40;66.40
9544;DHT22;30418;51.45933468;7.33152330;2023-04-08T07:56:54;10.40;66.50
9544;DHT22;30418;51.45933468;7.33152330;2023-04-08T07:59:23;10.40;66.40
9544;DHT22;30418;51.45933468;7.33152330;2023-04-08T08:01:51;10.40;66.50
9544;DHT22;30418;51.45933468;7.33152330;2023-04-08T08:04:20;10.50;66.60
9544;DHT22;30418;51.45933468;7.33152330;2023-04-08T08:06:51;10.50;66.50
9544;DHT22;30418;51.45933468;7.33152330;2023-04-08T08:09:20;10.50;66.50
9544;DHT22;30418;51.45933468;7.33152330;2023-04-08T08:11:50;10.50;66.50
9544;DHT22;30418;51.45933468;7.33152330;2023-04-08T08:14:18;10.60;66.50
9544;DHT22;30418;51.45933468;7.33152330;2023-04-08T08:16:48;10.60;66.30
9544;DHT22;30418;51.45933468;7.33152330;2023-04-08T08:19:16;10.60;65.90
9544;DHT22;30418;51.45933468;7.33152330;2023-04-08T08:21:45;10.60;65.60
9544;DHT22;30418;51.45933468;7.33152330;2023-04-08T08:24:14;10.60;65.70
9544;DHT22;30418;51.45933468;7.33152330;2023-04-08T08:26:43;10.60;65.80
9544;DHT22;30418;51.45933468;7.33152330;2023-04-08T08:29:14;10.60;65.80
9544;DHT22;30418;51.45933468;7.33152330;2023-04-08T08:31:43;10.60;66.00
9544;DHT22;30418;51.45933468;7.33152330;2023-04-08T08:34:14;10.60;66.10
9544;DHT22;30418;51.45933468;7.33152330;2023-04-08T08:36:44;10.60;65.90
9544;DHT22;30418;51.45933468;7.33152330;2023-04-08T08:39:13;10.60;65.90
9544;DHT22;30418;51.45933468;7.33152330;2023-04-08T08:41:42;10.60;65.70
9544;DHT22;30418;51.45933468;7.33152330;2023-04-08T08:44:10;10.60;65.70
9544;DHT22;30418;51.45933468;7.33152330;2023-04-08T08:46:43;10.60;65.70
9544;DHT22;30418;51.45933468;7.33152330;2023-04-08T08:49:12;10.70;65.90
9544;DHT22;30418;51.45933468;7.33152330;2023-04-08T08:51:40;10.70;65.80
9544;DHT22;30418;51.45933468;7.33152330;2023-04-08T08:54:09;10.70;65.80
9544;DHT22;30418;51.45933468;7.33152330;2023-04-08T08:56:37;10.70;65.80
9544;DHT22;30418;51.45933468;7.33152330;2023-04-08T08:59:06;10.70;65.90
9544;DHT22;30418;51.45933468;7.33152330;2023-04-08T09:01:36;10.70;65.90
9544;DHT22;30418;51.45933468;7.33152330;2023-04-08T09:04:13;10.70;66.20
9544;DHT22;30418;51.45933468;7.33152330;2023-04-08T09:06:44;10.70;66.40
9544;DHT22;30418;51.45933468;7.33152330;2023-04-08T09:09:14;10.70;66.20
9544;DHT22;30418;51.45933468;7.33152330;2023-04-08T09:11:46;10.80;67.20
9544;DHT22;30418;51.45933468;7.33152330;2023-04-08T09:14:19;10.80;66.30
9544;DHT22;30418;51.45933468;7.33152330;2023-04-08T09:16:48;10.80;66.30
9544;DHT22;30418;51.45933468;7.33152330;2023-04-08T09:19:19;10.90;66.40
9544;DHT22;30418;51.45933468;7.33152330;2023-04-08T09:22:05;11.00;66.50
9544;DHT22;30418;51.45933468;7.33152330;2023-04-08T09:24:36;11.00;66.50
9544;DHT22;30418;51.45933468;7.33152330;2023-04-08T09:27:05;11.00;66.00
9544;DHT22;30418;51.45933468;7.33152330;2023-04-08T09:29:33;11.00;65.80
9544;DHT22;30418;51.45933468;7.33152330;2023-04-08T09:32:05;11.00;65.40
9544;DHT22;30418;51.45933468;7.33152330;2023-04-08T09:34:35;11.00;65.20
9544;DHT22;30418;51.45933468;7.33152330;2023-04-08T09:37:04;11.00;65.00
9544;DHT22;30418;51.45933468;7.33152330;2023-04-08T09:39:33;11.00;64.90
9544;DHT22;30418;51.45933468;7.33152330;2023-04-08T09:42:05;10.90;65.60
9544;DHT22;30418;51.45933468;7.33152330;2023-04-08T09:44:37;10.90;64.90
9544;DHT22;30418;51.45933468;7.33152330;2023-04-08T09:47:12;10.90;64.90
9544;DHT22;30418;51.45933468;7.33152330;2023-04-08T09:49:52;10.90;64.90
9544;DHT22;30418;51.45933468;7.33152330;2023-04-08T09:52:32;10.80;64.80
9544;DHT22;30418;51.45933468;7.33152330;2023-04-08T09:55:03;10.90;64.80
9544;DHT22;30418;51.45933468;7.33152330;2023-04-08T09:57:39;10.80;64.40
9544;DHT22;30418;51.45933468;7.33152330;2023-04-08T10:00:11;10.80;64.40
9544;DHT22;30418;51.45933468;7.33152330;2023-04-08T10:02:49;10.80;65.40
9544;DHT22;30418;51.45933468;7.33152330;2023-04-08T10:05:24;10.80;64.40
9544;DHT22;30418;51.45933468;7.33152330;2023-04-08T10:07:55;10.80;64.40
9544;DHT22;30418;51.45933468;7.33152330;2023-04-08T10:10:24;10.70;64.40
9544;DHT22;30418;51.45933468;7.33152330;2023-04-08T10:12:53;10.70;64.40
9544;DHT22;30418;51.45933468;7.33152330;2023-04-08T10:15:24;10.80;64.80
9544;DHT22;30418;51.45933468;7.33152330;2023-04-08T10:17:54;10.70;64.90
9544;DHT22;30418;51.45933468;7.33152330;2023-04-08T10:20:44;10.80;64.80
9544;DHT22;30418;51.45933468;7.33152330;2023-04-08T10:23:14;10.80;64.60
9544;DHT22;30418;51.45933468;7.33152330;2023-04-08T10:25:45;10.80;64.60
9544;DHT22;30418;51.45933468;7.33152330;2023-04-08T10:28:24;10.80;64.50
9544;DHT22;30418;51.45933468;7.33152330;2023-04-08T10:30:54;10.80;64.40
9544;DHT22;30418;51.45933468;7.33152330;2023-04-08T10:33:30;10.80;64.50
9544;DHT22;30418;51.45933468;7.33152330;2023-04-08T10:36:08;10.80;64.70
9544;DHT22;30418;51.45933468;7.33152330;2023-04-08T10:38:38;10.80;65.00
9544;DHT22;30418;51.45933468;7.33152330;2023-04-08T10:41:09;10.90;65.20
9544;DHT22;30418;51.45933468;7.33152330;2023-04-08T10:43:39;11.00;65.20
9544;DHT22;30418;51.45933468;7.33152330;2023-04-08T10:46:09;11.00;65.10
9544;DHT22;30418;51.45933468;7.33152330;2023-04-08T10:48:38;11.10;66.20
9544;DHT22;30418;51.45933468;7.33152330;2023-04-08T10:51:08;11.10;65.30
9544;DHT22;30418;51.45933468;7.33152330;2023-04-08T10:53:38;11.20;65.30
9544;DHT22;30418;51.45933468;7.33152330;2023-04-08T10:56:08;11.20;65.20
9544;DHT22;30418;51.45933468;7.33152330;2023-04-08T10:58:47;11.30;65.00
9544;DHT22;30418;51.45933468;7.33152330;2023-04-08T11:01:16;11.30;65.00
9544;DHT22;30418;51.45933468;7.33152330;2023-04-08T11:03:45;11.40;65.00
9544;DHT22;30418;51.45933468;7.33152330;2023-04-08T11:06:16;11.40;64.60
9544;DHT22;30418;51.45933468;7.33152330;2023-04-08T11:08:45;11.40;64.50
9544;DHT22;30418;51.45933468;7.33152330;2023-04-08T11:11:14;11.40;64.40
9544;DHT22;30418;51.45933468;7.33152330;2023-04-08T11:13:44;11.50;64.60
9544;DHT22;30418;51.45933468;7.33152330;2023-04-08T11:16:21;11.50;64.80
9544;DHT22;30418;51.45933468;7.33152330;2023-04-08T11:18:50;11.50;64.70
9544;DHT22;30418;51.45933468;7.33152330;2023-04-08T11:21:21;11.60;64.80
9544;DHT22;30418;51.45933468;7.33152330;2023-04-08T11:23:51;11.60;64.80
9544;DHT22;30418;51.45933468;7.33152330;2023-04-08T11:26:21;11.60;64.70
9544;DHT22;30418;51.45933468;7.33152330;2023-04-08T11:28:49;11.60;64.70
9544;DHT22;30418;51.45933468;7.33152330;2023-04-08T11:31:18;11.70;64.70
9544;DHT22;30418;51.45933468;7.33152330;2023-04-08T11:33:52;11.70;64.60
9544;DHT22;30418;51.45933468;7.33152330;2023-04-08T11:36:23;11.70;64.40
9544;DHT22;30418;51.45933468;7.33152330;2023-04-08T11:38:53;11.70;64.30
9544;DHT22;30418;51.45933468;7.33152330;2023-04-08T11:41:22;11.70;64.30
9544;DHT22;30418;51.45933468;7.33152330;2023-04-08T11:43:53;11.70;64.10
9544;DHT22;30418;51.45933468;7.33152330;2023-04-08T11:46:23;11.70;64.30
9544;DHT22;30418;51.45933468;7.33152330;2023-04-08T11:49:03;11.70;64.60
9544;DHT22;30418;51.45933468;7.33152330;2023-04-08T11:51:53;11.80;64.90
9544;DHT22;30418;51.45933468;7.33152330;2023-04-08T11:54:27;11.80;64.90
9544;DHT22;30418;51.45933468;7.33152330;2023-04-08T11:56:55;11.80;65.00
9544;DHT22;30418;51.45933468;7.33152330;2023-04-08T11:59:25;11.90;65.10
9544;DHT22;30418;51.45933468;7.33152330;2023-04-08T12:01:55;12.00;65.30
9544;DHT22;30418;51.45933468;7.33152330;2023-04-08T12:04:25;12.00;65.30
9544;DHT22;30418;51.45933468;7.33152330;2023-04-08T12:06:55;12.00;65.30
9544;DHT22;30418;51.45933468;7.33152330;2023-04-08T12:09:24;12.10;65.10
9544;DHT22;30418;51.45933468;7.33152330;2023-04-08T12:11:53;12.20;65.10
9544;DHT22;30418;51.45933468;7.33152330;2023-04-08T12:14:22;12.20;65.30
9544;DHT22;30418;51.45933468;7.33152330;2023-04-08T12:16:54;12.20;65.10
9544;DHT22;30418;51.45933468;7.33152330;2023-04-08T12:19:23;12.30;65.20
9544;DHT22;30418;51.45933468;7.33152330;2023-04-08T12:21:52;12.30;64.70
9544;DHT22;30418;51.45933468;7.33152330;2023-04-08T12:24:22;12.30;64.40
9544;DHT22;30418;51.45933468;7.33152330;2023-04-08T12:26:50;12.30;64.30
9544;DHT22;30418;51.45933468;7.33152330;2023-04-08T12:29:19;12.30;64.50
9544;DHT22;30418;51.45933468;7.33152330;2023-04-08T12:31:48;12.30;64.40
9544;DHT22;30418;51.45933468;7.33152330;2023-04-08T12:34:16;12.30;64.30
9544;DHT22;30418;51.45933468;7.33152330;2023-04-08T12:36:46;12.30;64.30
9544;DHT22;30418;51.45933468;7.33152330;2023-04-08T12:39:16;12.30;64.40
9544;DHT22;30418;51.45933468;7.33152330;2023-04-08T12:41:46;12.30;64.30
9544;DHT22;30418;51.45933468;7.33152330;2023-04-08T12:44:15;12.30;64.30
9544;DHT22;30418;51.45933468;7.33152330;2023-04-08T12:46:43;12.30;64.30
9544;DHT22;30418;51.45933468;7.33152330;2023-04-08T12:49:12;12.30;64.30
9544;DHT22;30418;51.45933468;7.33152330;2023-04-08T12:51:40;12.30;64.30
9544;DHT22;30418;51.45933468;7.33152330;2023-04-08T12:54:09;12.30;64.30
9544;DHT22;30418;51.45933468;7.33152330;2023-04-08T12:56:38;12.30;64.30
9544;DHT22;30418;51.45933468;7.33152330;2023-04-08T12:59:10;12.30;64.30
9544;DHT22;30418;51.45933468;7.33152330;2023-04-08T13:01:38;12.30;64.30
9544;DHT22;30418;51.45933468;7.33152330;2023-04-08T13:04:07;12.30;64.30
9544;DHT22;30418;51.45933468;7.33152330;2023-04-08T13:06:36;12.30;64.30
9544;DHT22;30418;51.45933468;7.33152330;2023-04-08T13:09:04;12.30;64.30
9544;DHT22;30418;51.45933468;7.33152330;2023-04-08T13:11:33;12.30;65.10
9544;DHT22;30418;51.45933468;7.33152330;2023-04-08T13:14:01;12.30;64.90
9544;DHT22;30418;51.45933468;7.33152330;2023-04-08T13:16:31;12.40;65.00
9544;DHT22;30418;51.45933468;7.33152330;2023-04-08T13:18:59;12.40;65.00
9544;DHT22;30418;51.45933468;7.33152330;2023-04-08T13:21:28;12.40;65.20
9544;DHT22;30418;51.45933468;7.33152330;2023-04-08T13:23:57;12.50;65.60
9544;DHT22;30418;51.45933468;7.33152330;2023-04-08T13:26:26;12.50;66.20
9544;DHT22;30418;51.45933468;7.33152330;2023-04-08T13:28:54;12.60;66.40
9544;DHT22;30418;51.45933468;7.33152330;2023-04-08T13:31:24;12.70;66.40
9544;DHT22;30418;51.45933468;7.33152330;2023-04-08T13:33:54;12.70;65.70
9544;DHT22;30418;51.45933468;7.33152330;2023-04-08T13:36:24;12.70;66.20
9544;DHT22;30418;51.45933468;7.33152330;2023-04-08T13:38:54;12.70;66.00
9544;DHT22;30418;51.45933468;7.33152330;2023-04-08T13:41:24;12.70;65.50
9544;DHT22;30418;51.45933468;7.33152330;2023-04-08T13:43:54;12.80;65.30
9544;DHT22;30418;51.45933468;7.33152330;2023-04-08T13:46:23;12.70;65.10
9544;DHT22;30418;51.45933468;7.33152330;2023-04-08T13:48:54;12.80;65.60
9544;DHT22;30418;51.45933468;7.33152330;2023-04-08T13:51:22;12.70;64.80